sensor_id;sensor_type;location;lat;lon;timestamp;temperature;humidity
13589;DHT22;6865;52.552;13.434;2023-12-29T00:00:48;8.20;99.90
13589;DHT22;6865;52.552;13.434;2023-12-29T00:03:15;8.20;1.00
13589;DHT22;6865;52.552;13.434;2023-12-29T00:05:42;8.10;99.90
13589;DHT22;6865;52.552;13.434;2023-12-29T00:08:08;8.20;71.50
13589;DHT22;6865;52.552;13.434;2023-12-29T00:10:35;8.20;99.90
13589;DHT22;6865;52.552;13.434;2023-12-29T00:13:02;8.20;1.00
13589;DHT22;6865;52.552;13.434;2023-12-29T00:15:29;8.20;99.90
13589;DHT22;6865;52.552;13.434;2023-12-29T00:17:55;8.30;1.00
13589;DHT22;6865;52.552;13.434;2023-12-29T00:20:22;8.20;1.00
13589;DHT22;6865;52.552;13.434;2023-12-29T00:23:06;8.30;1.00
13589;DHT22;6865;52.552;13.434;2023-12-29T00:25:36;8.30;1.00
13589;DHT22;6865;52.552;13.434;2023-12-29T00:28:04;8.30;99.90
13589;DHT22;6865;52.552;13.434;2023-12-29T00:30:31;8.30;1.00
13589;DHT22;6865;52.552;13.434;2023-12-29T00:33:17;8.40;99.90
13589;DHT22;6865;52.552;13.434;2023-12-29T00:35:44;8.30;99.90
13589;DHT22;6865;52.552;13.434;2023-12-29T00:38:11;8.30;99.90
13589;DHT22;6865;52.552;13.434;2023-12-29T00:40:37;7.80;99.90
13589;DHT22;6865;52.552;13.434;2023-12-29T00:43:04;8.40;1.00
13589;DHT22;6865;52.552;13.434;2023-12-29T00:45:31;8.20;99.90
13589;DHT22;6865;52.552;13.434;2023-12-29T00:48:03;8.30;63.00
13589;DHT22;6865;52.552;13.434;2023-12-29T00:50:30;8.30;1.00
13589;DHT22;6865;52.552;13.434;2023-12-29T00:52:57;8.40;99.90
13589;DHT22;6865;52.552;13.434;2023-12-29T00:55:23;8.30;99.90
13589;DHT22;6865;52.552;13.434;2023-12-29T00:57:50;8.30;99.90
13589;DHT22;6865;52.552;13.434;2023-12-29T01:00:17;8.20;1.00
13589;DHT22;6865;52.552;13.434;2023-12-29T01:02:44;8.30;1.00
13589;DHT22;6865;52.552;13.434;2023-12-29T01:05:14;8.20;99.90
13589;DHT22;6865;52.552;13.434;2023-12-29T01:07:41;8.30;99.90
13589;DHT22;6865;52.552;13.434;2023-12-29T01:10:08;8.30;1.00
13589;DHT22;6865;52.552;13.434;2023-12-29T01:12:35;8.30;10.50
13589;DHT22;6865;52.552;13.434;2023-12-29T01:15:02;8.40;99.90
13589;DHT22;6865;52.552;13.434;2023-12-29T01:17:28;8.40;1.00
13589;DHT22;6865;52.552;13.434;2023-12-29T01:19:55;8.40;1.00
13589;DHT22;6865;52.552;13.434;2023-12-29T01:22:22;8.30;99.90
13589;DHT22;6865;52.552;13.434;2023-12-29T01:24:48;8.40;1.00
13589;DHT22;6865;52.552;13.434;2023-12-29T01:27:15;8.30;99.90
13589;DHT22;6865;52.552;13.434;2023-12-29T01:29:42;8.30;1.00
13589;DHT22;6865;52.552;13.434;2023-12-29T01:32:09;8.40;99.90
13589;DHT22;6865;52.552;13.434;2023-12-29T01:34:37;8.40;99.90
13589;DHT22;6865;52.552;13.434;2023-12-29T01:37:04;8.40;99.90
13589;DHT22;6865;52.552;13.434;2023-12-29T01:39:31;8.40;99.90
13589;DHT22;6865;52.552;13.434;2023-12-29T01:41:57;8.40;99.90
13589;DHT22;6865;52.552;13.434;2023-12-29T01:44:24;8.40;99.90
13589;DHT22;6865;52.552;13.434;2023-12-29T01:46:54;8.40;99.90
13589;DHT22;6865;52.552;13.434;2023-12-29T01:49:21;8.30;99.90
13589;DHT22;6865;52.552;13.434;2023-12-29T01:51:54;8.30;99.90
13589;DHT22;6865;52.552;13.434;2023-12-29T01:54:24;8.40;99.90
13589;DHT22;6865;52.552;13.434;2023-12-29T01:56:52;8.30;1.00
13589;DHT22;6865;52.552;13.434;2023-12-29T01:59:23;8.30;1.00
13589;DHT22;6865;52.552;13.434;2023-12-29T02:01:53;8.30;99.90
13589;DHT22;6865;52.552;13.434;2023-12-29T02:04:23;8.30;1.00
13589;DHT22;6865;52.552;13.434;2023-12-29T02:06:51;8.40;99.90
13589;DHT22;6865;52.552;13.434;2023-12-29T02:09:18;8.40;99.90
13589;DHT22;6865;52.552;13.434;2023-12-29T02:11:46;8.40;1.00
13589;DHT22;6865;52.552;13.434;2023-12-29T02:14:17;8.40;99.90
13589;DHT22;6865;52.552;13.434;2023-12-29T02:19:46;8.40;99.90
13589;DHT22;6865;52.552;13.434;2023-12-29T02:22:14;8.30;99.90
13589;DHT22;6865;52.552;13.434;2023-12-29T02:24:50;8.40;99.90
13589;DHT22;6865;52.552;13.434;2023-12-29T02:32:55;8.30;99.90
13589;DHT22;6865;52.552;13.434;2023-12-29T02:35:28;8.30;99.90
13589;DHT22;6865;52.552;13.434;2023-12-29T02:37:56;8.30;1.00
13589;DHT22;6865;52.552;13.434;2023-12-29T02:40:24;8.30;1.00
13589;DHT22;6865;52.552;13.434;2023-12-29T02:42:51;8.30;99.90
13589;DHT22;6865;52.552;13.434;2023-12-29T02:45:18;8.30;1.00
13589;DHT22;6865;52.552;13.434;2023-12-29T02:47:45;8.30;99.90
13589;DHT22;6865;52.552;13.434;2023-12-29T02:50:12;8.40;99.90
13589;DHT22;6865;52.552;13.434;2023-12-29T02:52:39;8.40;99.90
13589;DHT22;6865;52.552;13.434;2023-12-29T02:55:06;8.50;1.00
13589;DHT22;6865;52.552;13.434;2023-12-29T02:57:33;8.60;1.00
13589;DHT22;6865;52.552;13.434;2023-12-29T02:59:59;8.70;99.90
13589;DHT22;6865;52.552;13.434;2023-12-29T03:02:26;8.60;99.90
13589;DHT22;6865;52.552;13.434;2023-12-29T03:04:53;8.60;99.90
13589;DHT22;6865;52.552;13.434;2023-12-29T03:07:19;8.50;1.00
13589;DHT22;6865;52.552;13.434;2023-12-29T03:09:46;8.50;1.00
13589;DHT22;6865;52.552;13.434;2023-12-29T03:12:14;8.50;1.00
13589;DHT22;6865;52.552;13.434;2023-12-29T03:14:40;8.50;1.00
13589;DHT22;6865;52.552;13.434;2023-12-29T03:17:07;8.60;99.90
13589;DHT22;6865;52.552;13.434;2023-12-29T03:19:34;8.60;99.90
13589;DHT22;6865;52.552;13.434;2023-12-29T03:22:00;8.60;99.90
13589;DHT22;6865;52.552;13.434;2023-12-29T03:24:28;8.60;99.90
13589;DHT22;6865;52.552;13.434;2023-12-29T03:26:55;8.20;99.90
13589;DHT22;6865;52.552;13.434;2023-12-29T03:29:22;8.70;99.90
13589;DHT22;6865;52.552;13.434;2023-12-29T03:31:49;8.60;1.00
13589;DHT22;6865;52.552;13.434;2023-12-29T03:34:16;8.50;1.00
13589;DHT22;6865;52.552;13.434;2023-12-29T03:36:43;8.60;1.00
13589;DHT22;6865;52.552;13.434;2023-12-29T03:39:10;8.60;99.90
13589;DHT22;6865;52.552;13.434;2023-12-29T03:41:36;8.60;99.90
13589;DHT22;6865;52.552;13.434;2023-12-29T03:44:03;8.60;99.90
13589;DHT22;6865;52.552;13.434;2023-12-29T03:46:30;8.60;99.90
13589;DHT22;6865;52.552;13.434;2023-12-29T03:48:56;8.70;99.90
13589;DHT22;6865;52.552;13.434;2023-12-29T03:51:24;8.60;99.90
13589;DHT22;6865;52.552;13.434;2023-12-29T03:53:51;8.60;99.90
13589;DHT22;6865;52.552;13.434;2023-12-29T03:56:18;8.80;23.50
13589;DHT22;6865;52.552;13.434;2023-12-29T03:58:45;8.70;1.00
13589;DHT22;6865;52.552;13.434;2023-12-29T04:01:14;8.70;99.90
13589;DHT22;6865;52.552;13.434;2023-12-29T04:03:41;8.70;1.00
13589;DHT22;6865;52.552;13.434;2023-12-29T04:06:09;8.80;1.00
13589;DHT22;6865;52.552;13.434;2023-12-29T04:08:37;8.80;1.00
13589;DHT22;6865;52.552;13.434;2023-12-29T04:11:05;8.80;1.00
13589;DHT22;6865;52.552;13.434;2023-12-29T04:13:32;8.60;1.00
13589;DHT22;6865;52.552;13.434;2023-12-29T04:15:58;8.80;1.00
13589;DHT22;6865;52.552;13.434;2023-12-29T04:18:25;8.80;1.00
13589;DHT22;6865;52.552;13.434;2023-12-29T04:20:52;8.80;1.00
13589;DHT22;6865;52.552;13.434;2023-12-29T04:23:19;8.50;84.10
13589;DHT22;6865;52.552;13.434;2023-12-29T04:25:45;8.70;1.00
13589;DHT22;6865;52.552;13.434;2023-12-29T04:28:13;8.80;1.00
13589;DHT22;6865;52.552;13.434;2023-12-29T04:30:39;8.80;1.00
13589;DHT22;6865;52.552;13.434;2023-12-29T04:33:06;8.80;1.00
13589;DHT22;6865;52.552;13.434;2023-12-29T04:35:33;8.80;1.00
13589;DHT22;6865;52.552;13.434;2023-12-29T04:38:00;8.80;1.00
13589;DHT22;6865;52.552;13.434;2023-12-29T04:40:27;8.70;1.00
13589;DHT22;6865;52.552;13.434;2023-12-29T04:42:53;8.70;1.00
13589;DHT22;6865;52.552;13.434;2023-12-29T04:45:20;8.80;1.00
13589;DHT22;6865;52.552;13.434;2023-12-29T04:47:47;9.20;1.00
13589;DHT22;6865;52.552;13.434;2023-12-29T04:50:14;8.80;1.00
13589;DHT22;6865;52.552;13.434;2023-12-29T04:52:41;8.80;1.00
13589;DHT22;6865;52.552;13.434;2023-12-29T04:55:08;8.80;1.00
13589;DHT22;6865;52.552;13.434;2023-12-29T04:57:35;8.70;1.00
13589;DHT22;6865;52.552;13.434;2023-12-29T05:00:01;8.70;1.00
13589;DHT22;6865;52.552;13.434;2023-12-29T05:02:29;8.70;99.90
13589;DHT22;6865;52.552;13.434;2023-12-29T05:04:55;8.60;99.90
13589;DHT22;6865;52.552;13.434;2023-12-29T05:07:24;8.60;1.00
13589;DHT22;6865;52.552;13.434;2023-12-29T05:09:50;8.60;1.00
13589;DHT22;6865;52.552;13.434;2023-12-29T05:12:17;8.70;1.00
13589;DHT22;6865;52.552;13.434;2023-12-29T05:14:44;8.40;99.90
13589;DHT22;6865;52.552;13.434;2023-12-29T05:17:10;8.70;1.00
13589;DHT22;6865;52.552;13.434;2023-12-29T05:19:37;8.60;1.00
13589;DHT22;6865;52.552;13.434;2023-12-29T05:22:04;8.60;99.90
13589;DHT22;6865;52.552;13.434;2023-12-29T05:24:31;8.30;1.00
13589;DHT22;6865;52.552;13.434;2023-12-29T05:26:58;8.70;1.00
13589;DHT22;6865;52.552;13.434;2023-12-29T05:29:25;8.70;1.00
13589;DHT22;6865;52.552;13.434;2023-12-29T05:31:52;8.70;99.90
13589;DHT22;6865;52.552;13.434;2023-12-29T05:34:19;7.90;1.00
13589;DHT22;6865;52.552;13.434;2023-12-29T05:36:46;8.80;1.00
13589;DHT22;6865;52.552;13.434;2023-12-29T05:39:16;8.90;1.00
13589;DHT22;6865;52.552;13.434;2023-12-29T05:41:43;8.90;1.00
13589;DHT22;6865;52.552;13.434;2023-12-29T05:44:09;8.90;1.00
13589;DHT22;6865;52.552;13.434;2023-12-29T05:46:36;8.90;99.90
13589;DHT22;6865;52.552;13.434;2023-12-29T05:49:03;9.00;99.90
13589;DHT22;6865;52.552;13.434;2023-12-29T05:51:30;9.00;99.90
13589;DHT22;6865;52.552;13.434;2023-12-29T05:53:56;9.00;61.70
13589;DHT22;6865;52.552;13.434;2023-12-29T05:56:23;9.00;11.70
13589;DHT22;6865;52.552;13.434;2023-12-29T05:58:52;9.10;1.00
13589;DHT22;6865;52.552;13.434;2023-12-29T06:01:19;9.10;1.00
13589;DHT22;6865;52.552;13.434;2023-12-29T06:03:46;9.00;1.00
13589;DHT22;6865;52.552;13.434;2023-12-29T06:06:13;9.00;99.90
13589;DHT22;6865;52.552;13.434;2023-12-29T06:08:39;9.00;1.00
13589;DHT22;6865;52.552;13.434;2023-12-29T06:11:06;9.10;1.00
13589;DHT22;6865;52.552;13.434;2023-12-29T06:13:33;9.10;1.00
13589;DHT22;6865;52.552;13.434;2023-12-29T06:16:00;9.10;1.00
13589;DHT22;6865;52.552;13.434;2023-12-29T06:18:27;9.20;99.90
13589;DHT22;6865;52.552;13.434;2023-12-29T06:20:54;9.20;99.90
13589;DHT22;6865;52.552;13.434;2023-12-29T06:23:20;9.20;99.90
13589;DHT22;6865;52.552;13.434;2023-12-29T06:25:47;9.20;99.90
13589;DHT22;6865;52.552;13.434;2023-12-29T06:28:14;9.10;99.90
13589;DHT22;6865;52.552;13.434;2023-12-29T06:30:40;9.10;99.90
13589;DHT22;6865;52.552;13.434;2023-12-29T06:33:07;9.10;99.90
13589;DHT22;6865;52.552;13.434;2023-12-29T06:35:34;9.10;99.90
13589;DHT22;6865;52.552;13.434;2023-12-29T06:38:01;8.90;99.90
13589;DHT22;6865;52.552;13.434;2023-12-29T06:40:28;9.10;99.90
13589;DHT22;6865;52.552;13.434;2023-12-29T06:42:55;9.20;99.90
13589;DHT22;6865;52.552;13.434;2023-12-29T06:45:21;9.20;99.90
13589;DHT22;6865;52.552;13.434;2023-12-29T06:47:48;9.10;67.40
13589;DHT22;6865;52.552;13.434;2023-12-29T06:50:15;9.20;1.00
13589;DHT22;6865;52.552;13.434;2023-12-29T06:52:41;9.20;1.00
13589;DHT22;6865;52.552;13.434;2023-12-29T06:55:09;9.30;1.00
13589;DHT22;6865;52.552;13.434;2023-12-29T06:57:36;9.30;1.00
13589;DHT22;6865;52.552;13.434;2023-12-29T07:00:04;9.30;1.00
13589;DHT22;6865;52.552;13.434;2023-12-29T07:02:31;9.30;99.90
13589;DHT22;6865;52.552;13.434;2023-12-29T07:04:57;9.30;1.00
13589;DHT22;6865;52.552;13.434;2023-12-29T07:07:24;9.30;1.00
13589;DHT22;6865;52.552;13.434;2023-12-29T07:09:51;9.40;1.00
13589;DHT22;6865;52.552;13.434;2023-12-29T07:12:18;9.40;99.90
13589;DHT22;6865;52.552;13.434;2023-12-29T07:14:45;9.30;99.90
13589;DHT22;6865;52.552;13.434;2023-12-29T07:17:12;9.10;99.90
13589;DHT22;6865;52.552;13.434;2023-12-29T07:19:39;9.40;1.00
13589;DHT22;6865;52.552;13.434;2023-12-29T07:22:06;9.40;99.90
13589;DHT22;6865;52.552;13.434;2023-12-29T07:24:35;9.10;99.90
13589;DHT22;6865;52.552;13.434;2023-12-29T07:27:03;9.40;99.90
13589;DHT22;6865;52.552;13.434;2023-12-29T07:29:30;9.50;99.90
13589;DHT22;6865;52.552;13.434;2023-12-29T07:31:56;9.50;99.90
13589;DHT22;6865;52.552;13.434;2023-12-29T07:34:23;9.60;99.90
13589;DHT22;6865;52.552;13.434;2023-12-29T07:36:50;9.60;99.90
13589;DHT22;6865;52.552;13.434;2023-12-29T07:39:18;9.60;99.90
13589;DHT22;6865;52.552;13.434;2023-12-29T07:41:45;9.60;99.90
13589;DHT22;6865;52.552;13.434;2023-12-29T07:44:13;9.60;99.90
13589;DHT22;6865;52.552;13.434;2023-12-29T07:46:40;9.60;99.90
13589;DHT22;6865;52.552;13.434;2023-12-29T07:49:07;9.60;99.90
13589;DHT22;6865;52.552;13.434;2023-12-29T07:51:34;9.60;99.90
13589;DHT22;6865;52.552;13.434;2023-12-29T07:54:05;9.60;99.90
13589;DHT22;6865;52.552;13.434;2023-12-29T07:56:31;9.70;99.90
13589;DHT22;6865;52.552;13.434;2023-12-29T07:58:58;9.60;99.90
13589;DHT22;6865;52.552;13.434;2023-12-29T08:01:25;9.60;99.90
13589;DHT22;6865;52.552;13.434;2023-12-29T08:03:53;9.60;99.90
13589;DHT22;6865;52.552;13.434;2023-12-29T08:06:20;9.70;99.90
13589;DHT22;6865;52.552;13.434;2023-12-29T08:08:47;9.80;99.90
13589;DHT22;6865;52.552;13.434;2023-12-29T08:11:15;9.80;99.90
13589;DHT22;6865;52.552;13.434;2023-12-29T08:13:44;9.90;26.80
13589;DHT22;6865;52.552;13.434;2023-12-29T08:16:11;9.80;96.50
13589;DHT22;6865;52.552;13.434;2023-12-29T08:18:38;9.80;99.90
13589;DHT22;6865;52.552;13.434;2023-12-29T08:21:05;9.90;33.00
13589;DHT22;6865;52.552;13.434;2023-12-29T08:23:32;9.90;1.00
13589;DHT22;6865;52.552;13.434;2023-12-29T08:25:58;9.90;37.30
13589;DHT22;6865;52.552;13.434;2023-12-29T08:28:25;9.90;1.00
13589;DHT22;6865;52.552;13.434;2023-12-29T08:30:52;9.90;1.00
13589;DHT22;6865;52.552;13.434;2023-12-29T08:33:19;9.90;27.40
13589;DHT22;6865;52.552;13.434;2023-12-29T08:35:46;10.00;1.00
13589;DHT22;6865;52.552;13.434;2023-12-29T08:38:13;10.00;1.00
13589;DHT22;6865;52.552;13.434;2023-12-29T08:40:40;10.00;1.00
13589;DHT22;6865;52.552;13.434;2023-12-29T08:43:08;10.00;1.00
13589;DHT22;6865;52.552;13.434;2023-12-29T08:45:34;10.00;1.00
13589;DHT22;6865;52.552;13.434;2023-12-29T08:48:02;9.90;1.00
13589;DHT22;6865;52.552;13.434;2023-12-29T08:50:30;10.00;1.00
13589;DHT22;6865;52.552;13.434;2023-12-29T08:52:56;10.00;1.00
13589;DHT22;6865;52.552;13.434;2023-12-29T08:55:23;10.00;1.00
13589;DHT22;6865;52.552;13.434;2023-12-29T08:57:50;10.00;1.00
13589;DHT22;6865;52.552;13.434;2023-12-29T09:00:17;10.00;1.00
13589;DHT22;6865;52.552;13.434;2023-12-29T09:02:43;10.00;1.00
13589;DHT22;6865;52.552;13.434;2023-12-29T09:05:11;10.00;1.00
13589;DHT22;6865;52.552;13.434;2023-12-29T09:07:38;10.00;1.00
13589;DHT22;6865;52.552;13.434;2023-12-29T09:10:05;10.00;1.00
13589;DHT22;6865;52.552;13.434;2023-12-29T09:12:38;10.00;1.00
13589;DHT22;6865;52.552;13.434;2023-12-29T09:15:07;10.10;1.00
13589;DHT22;6865;52.552;13.434;2023-12-29T09:17:34;10.10;1.00
13589;DHT22;6865;52.552;13.434;2023-12-29T09:20:03;10.10;1.00
13589;DHT22;6865;52.552;13.434;2023-12-29T09:22:36;10.10;1.00
13589;DHT22;6865;52.552;13.434;2023-12-29T09:25:04;10.20;1.00
13589;DHT22;6865;52.552;13.434;2023-12-29T09:27:31;10.20;1.00
13589;DHT22;6865;52.552;13.434;2023-12-29T09:29:57;10.30;1.00
13589;DHT22;6865;52.552;13.434;2023-12-29T09:32:24;10.30;1.00
13589;DHT22;6865;52.552;13.434;2023-12-29T09:34:51;10.30;1.00
13589;DHT22;6865;52.552;13.434;2023-12-29T09:37:18;10.30;1.00
13589;DHT22;6865;52.552;13.434;2023-12-29T09:39:45;10.10;1.00
13589;DHT22;6865;52.552;13.434;2023-12-29T09:42:20;10.40;1.00
13589;DHT22;6865;52.552;13.434;2023-12-29T09:44:51;10.40;1.00
13589;DHT22;6865;52.552;13.434;2023-12-29T09:47:24;10.50;99.90
13589;DHT22;6865;52.552;13.434;2023-12-29T09:49:54;10.50;99.90
13589;DHT22;6865;52.552;13.434;2023-12-29T09:52:22;10.50;99.90
13589;DHT22;6865;52.552;13.434;2023-12-29T09:54:52;10.60;99.90
13589;DHT22;6865;52.552;13.434;2023-12-29T09:57:20;10.60;99.90
13589;DHT22;6865;52.552;13.434;2023-12-29T09:59:48;10.50;99.90
13589;DHT22;6865;52.552;13.434;2023-12-29T10:02:20;11.30;99.90
13589;DHT22;6865;52.552;13.434;2023-12-29T10:04:49;10.50;99.90
13589;DHT22;6865;52.552;13.434;2023-12-29T10:07:23;10.60;99.90
13589;DHT22;6865;52.552;13.434;2023-12-29T10:09:54;10.50;99.90
13589;DHT22;6865;52.552;13.434;2023-12-29T10:12:22;10.60;99.90
13589;DHT22;6865;52.552;13.434;2023-12-29T10:15:10;10.60;99.90
13589;DHT22;6865;52.552;13.434;2023-12-29T10:17:50;10.60;99.90
13589;DHT22;6865;52.552;13.434;2023-12-29T10:20:33;10.70;99.90
13589;DHT22;6865;52.552;13.434;2023-12-29T10:23:11;10.70;99.90
13589;DHT22;6865;52.552;13.434;2023-12-29T10:25:40;10.80;99.90
13589;DHT22;6865;52.552;13.434;2023-12-29T10:28:07;10.70;99.90
13589;DHT22;6865;52.552;13.434;2023-12-29T10:30:36;10.70;84.70
13589;DHT22;6865;52.552;13.434;2023-12-29T10:33:04;10.70;27.00
13589;DHT22;6865;52.552;13.434;2023-12-29T10:35:34;10.70;1.00
13589;DHT22;6865;52.552;13.434;2023-12-29T10:38:11;10.80;1.00
13589;DHT22;6865;52.552;13.434;2023-12-29T10:40:39;10.80;1.00
13589;DHT22;6865;52.552;13.434;2023-12-29T10:43:06;10.80;1.00
13589;DHT22;6865;52.552;13.434;2023-12-29T10:45:35;10.80;1.00
13589;DHT22;6865;52.552;13.434;2023-12-29T10:48:05;10.80;1.00
13589;DHT22;6865;52.552;13.434;2023-12-29T10:50:43;10.80;1.00
13589;DHT22;6865;52.552;13.434;2023-12-29T10:53:11;10.90;1.00
13589;DHT22;6865;52.552;13.434;2023-12-29T10:55:39;10.90;1.00
13589;DHT22;6865;52.552;13.434;2023-12-29T10:58:06;11.00;1.00
13589;DHT22;6865;52.552;13.434;2023-12-29T11:00:32;11.00;1.00
13589;DHT22;6865;52.552;13.434;2023-12-29T11:03:00;11.10;1.00
13589;DHT22;6865;52.552;13.434;2023-12-29T11:05:27;11.10;1.00
13589;DHT22;6865;52.552;13.434;2023-12-29T11:07:55;11.10;1.00
13589;DHT22;6865;52.552;13.434;2023-12-29T11:10:22;11.10;1.00
13589;DHT22;6865;52.552;13.434;2023-12-29T11:12:49;11.10;1.00
13589;DHT22;6865;52.552;13.434;2023-12-29T11:15:16;11.10;1.00
13589;DHT22;6865;52.552;13.434;2023-12-29T11:17:43;11.10;1.00
13589;DHT22;6865;52.552;13.434;2023-12-29T11:20:16;11.10;99.90
13589;DHT22;6865;52.552;13.434;2023-12-29T11:22:46;11.10;99.90
13589;DHT22;6865;52.552;13.434;2023-12-29T11:25:14;11.10;99.90
13589;DHT22;6865;52.552;13.434;2023-12-29T11:27:42;11.10;99.90
13589;DHT22;6865;52.552;13.434;2023-12-29T11:30:11;11.10;99.90
13589;DHT22;6865;52.552;13.434;2023-12-29T11:35:20;11.20;99.90
13589;DHT22;6865;52.552;13.434;2023-12-29T11:38:17;11.20;99.90
13589;DHT22;6865;52.552;13.434;2023-12-29T11:41:05;11.10;99.90
13589;DHT22;6865;52.552;13.434;2023-12-29T11:43:33;11.20;99.90
13589;DHT22;6865;52.552;13.434;2023-12-29T11:46:00;11.30;99.90
13589;DHT22;6865;52.552;13.434;2023-12-29T11:48:58;11.20;99.90
13589;DHT22;6865;52.552;13.434;2023-12-29T11:51:32;11.20;99.90
13589;DHT22;6865;52.552;13.434;2023-12-29T11:54:04;11.30;99.90
13589;DHT22;6865;52.552;13.434;2023-12-29T11:56:33;11.30;99.90
13589;DHT22;6865;52.552;13.434;2023-12-29T12:01:42;11.20;99.90
13589;DHT22;6865;52.552;13.434;2023-12-29T12:04:41;11.20;99.90
13589;DHT22;6865;52.552;13.434;2023-12-29T12:07:17;11.20;99.90
13589;DHT22;6865;52.552;13.434;2023-12-29T12:12:49;11.20;99.90
13589;DHT22;6865;52.552;13.434;2023-12-29T12:17:59;11.10;99.90
13589;DHT22;6865;52.552;13.434;2023-12-29T12:20:26;11.10;99.90
13589;DHT22;6865;52.552;13.434;2023-12-29T12:23:00;11.20;99.90
13589;DHT22;6865;52.552;13.434;2023-12-29T12:25:29;11.20;99.90
13589;DHT22;6865;52.552;13.434;2023-12-29T12:27:57;11.20;99.90
13589;DHT22;6865;52.552;13.434;2023-12-29T12:30:24;11.10;99.90
13589;DHT22;6865;52.552;13.434;2023-12-29T12:32:58;11.20;1.00
13589;DHT22;6865;52.552;13.434;2023-12-29T12:35:25;11.10;79.50
13589;DHT22;6865;52.552;13.434;2023-12-29T12:40:35;10.90;1.00
13589;DHT22;6865;52.552;13.434;2023-12-29T12:43:02;10.80;99.90
13589;DHT22;6865;52.552;13.434;2023-12-29T12:45:35;10.60;23.10
13589;DHT22;6865;52.552;13.434;2023-12-29T12:48:22;10.50;99.90
13589;DHT22;6865;52.552;13.434;2023-12-29T12:50:50;10.40;99.90
13589;DHT22;6865;52.552;13.434;2023-12-29T12:53:17;10.30;99.90
13589;DHT22;6865;52.552;13.434;2023-12-29T12:55:51;10.30;1.00
13589;DHT22;6865;52.552;13.434;2023-12-29T12:58:19;10.30;99.90
13589;DHT22;6865;52.552;13.434;2023-12-29T13:00:48;10.30;99.90
13589;DHT22;6865;52.552;13.434;2023-12-29T13:03:19;10.20;1.00
13589;DHT22;6865;52.552;13.434;2023-12-29T13:05:46;10.20;99.90
13589;DHT22;6865;52.552;13.434;2023-12-29T13:08:13;10.20;99.90
13589;DHT22;6865;52.552;13.434;2023-12-29T13:10:49;10.30;47.60
13589;DHT22;6865;52.552;13.434;2023-12-29T13:13:16;10.20;1.00
13589;DHT22;6865;52.552;13.434;2023-12-29T13:15:51;10.10;99.90
13589;DHT22;6865;52.552;13.434;2023-12-29T13:18:28;10.10;1.00
13589;DHT22;6865;52.552;13.434;2023-12-29T13:20:55;10.10;43.20
13589;DHT22;6865;52.552;13.434;2023-12-29T13:23:25;10.20;1.00
13589;DHT22;6865;52.552;13.434;2023-12-29T13:25:57;9.80;1.00
13589;DHT22;6865;52.552;13.434;2023-12-29T13:28:26;10.30;99.90
13589;DHT22;6865;52.552;13.434;2023-12-29T13:30:54;10.30;1.00
13589;DHT22;6865;52.552;13.434;2023-12-29T13:33:33;10.40;99.90
13589;DHT22;6865;52.552;13.434;2023-12-29T13:36:09;10.40;99.90
13589;DHT22;6865;52.552;13.434;2023-12-29T13:38:47;10.30;1.00
13589;DHT22;6865;52.552;13.434;2023-12-29T13:41:17;10.40;1.00
13589;DHT22;6865;52.552;13.434;2023-12-29T13:43:46;10.30;1.00
13589;DHT22;6865;52.552;13.434;2023-12-29T13:46:15;10.40;1.00
13589;DHT22;6865;52.552;13.434;2023-12-29T13:48:43;10.40;99.90
13589;DHT22;6865;52.552;13.434;2023-12-29T13:51:12;10.40;99.90
13589;DHT22;6865;52.552;13.434;2023-12-29T13:53:38;10.40;99.90
13589;DHT22;6865;52.552;13.434;2023-12-29T13:56:07;10.50;1.00
13589;DHT22;6865;52.552;13.434;2023-12-29T13:58:34;10.50;1.00
13589;DHT22;6865;52.552;13.434;2023-12-29T14:01:01;10.50;99.90
13589;DHT22;6865;52.552;13.434;2023-12-29T14:03:43;10.50;1.00
13589;DHT22;6865;52.552;13.434;2023-12-29T14:06:18;10.50;14.10
13589;DHT22;6865;52.552;13.434;2023-12-29T14:08:46;10.60;99.90
13589;DHT22;6865;52.552;13.434;2023-12-29T14:11:13;10.60;1.00
13589;DHT22;6865;52.552;13.434;2023-12-29T14:13:44;10.60;99.90
13589;DHT22;6865;52.552;13.434;2023-12-29T14:16:12;10.30;99.90
13589;DHT22;6865;52.552;13.434;2023-12-29T14:18:53;10.60;1.00
13589;DHT22;6865;52.552;13.434;2023-12-29T14:21:26;10.50;1.00
13589;DHT22;6865;52.552;13.434;2023-12-29T14:24:12;10.60;1.00
13589;DHT22;6865;52.552;13.434;2023-12-29T14:26:41;10.60;99.90
13589;DHT22;6865;52.552;13.434;2023-12-29T14:29:11;10.60;99.90
13589;DHT22;6865;52.552;13.434;2023-12-29T14:31:40;10.60;1.00
13589;DHT22;6865;52.552;13.434;2023-12-29T14:34:08;10.70;1.00
13589;DHT22;6865;52.552;13.434;2023-12-29T14:36:36;10.70;1.00
13589;DHT22;6865;52.552;13.434;2023-12-29T14:39:04;10.60;1.00
13589;DHT22;6865;52.552;13.434;2023-12-29T14:41:31;10.60;29.00
13589;DHT22;6865;52.552;13.434;2023-12-29T14:43:58;10.60;1.00
13589;DHT22;6865;52.552;13.434;2023-12-29T14:46:26;10.60;1.00
13589;DHT22;6865;52.552;13.434;2023-12-29T14:48:53;10.60;99.90
13589;DHT22;6865;52.552;13.434;2023-12-29T14:51:20;10.60;1.00
13589;DHT22;6865;52.552;13.434;2023-12-29T14:53:49;10.70;1.00
13589;DHT22;6865;52.552;13.434;2023-12-29T14:56:17;10.60;99.90
13589;DHT22;6865;52.552;13.434;2023-12-29T14:58:44;10.70;1.00
13589;DHT22;6865;52.552;13.434;2023-12-29T15:01:11;10.70;99.90
13589;DHT22;6865;52.552;13.434;2023-12-29T15:03:37;10.70;99.90
13589;DHT22;6865;52.552;13.434;2023-12-29T15:06:04;10.70;1.00
13589;DHT22;6865;52.552;13.434;2023-12-29T15:08:31;10.60;1.00
13589;DHT22;6865;52.552;13.434;2023-12-29T15:11:02;10.60;1.00
13589;DHT22;6865;52.552;13.434;2023-12-29T15:13:30;10.60;40.80
13589;DHT22;6865;52.552;13.434;2023-12-29T15:16:01;10.50;99.90
13589;DHT22;6865;52.552;13.434;2023-12-29T15:18:28;10.50;99.90
13589;DHT22;6865;52.552;13.434;2023-12-29T15:20:58;10.50;99.90
13589;DHT22;6865;52.552;13.434;2023-12-29T15:23:25;10.40;1.00
13589;DHT22;6865;52.552;13.434;2023-12-29T15:25:51;10.40;10.20
13589;DHT22;6865;52.552;13.434;2023-12-29T15:28:19;10.40;99.90
13589;DHT22;6865;52.552;13.434;2023-12-29T15:30:45;10.40;1.00
13589;DHT22;6865;52.552;13.434;2023-12-29T15:33:13;10.40;1.00
13589;DHT22;6865;52.552;13.434;2023-12-29T15:35:41;10.40;99.90
13589;DHT22;6865;52.552;13.434;2023-12-29T15:38:08;10.50;99.90
13589;DHT22;6865;52.552;13.434;2023-12-29T15:40:35;10.40;1.00
13589;DHT22;6865;52.552;13.434;2023-12-29T15:43:03;10.40;78.70
13589;DHT22;6865;52.552;13.434;2023-12-29T15:45:33;10.40;99.90
13589;DHT22;6865;52.552;13.434;2023-12-29T15:48:01;10.40;99.90
13589;DHT22;6865;52.552;13.434;2023-12-29T15:50:28;10.40;1.00
13589;DHT22;6865;52.552;13.434;2023-12-29T15:52:55;10.50;1.00
13589;DHT22;6865;52.552;13.434;2023-12-29T15:55:22;10.50;1.00
13589;DHT22;6865;52.552;13.434;2023-12-29T15:57:48;10.50;1.00
13589;DHT22;6865;52.552;13.434;2023-12-29T16:00:16;10.40;99.90
13589;DHT22;6865;52.552;13.434;2023-12-29T16:02:42;10.40;1.00
13589;DHT22;6865;52.552;13.434;2023-12-29T16:05:09;10.30;99.90
13589;DHT22;6865;52.552;13.434;2023-12-29T16:07:36;10.30;99.90
13589;DHT22;6865;52.552;13.434;2023-12-29T16:10:03;10.40;99.90
13589;DHT22;6865;52.552;13.434;2023-12-29T16:12:30;10.40;1.00
13589;DHT22;6865;52.552;13.434;2023-12-29T16:14:57;10.40;99.90